createdAt,value
2019-01-25T00:00:53.148Z,99.80
2019-01-25T00:03:22.677Z,99.80
2019-01-25T00:05:52.097Z,99.80
2019-01-25T00:08:22.181Z,99.80
2019-01-25T00:10:52.237Z,99.80
2019-01-25T00:13:21.946Z,99.80
2019-01-25T00:15:51.543Z,99.80
2019-01-25T00:18:20.703Z,99.80
2019-01-25T00:20:49.923Z,99.70
2019-01-25T00:23:19.683Z,98.90
2019-01-25T00:25:48.826Z,98.90
2019-01-25T00:28:17.987Z,95.80
2019-01-25T00:30:47.267Z,96.20
2019-01-25T00:33:19.686Z,96.80
2019-01-25T00:35:49.335Z,92.90
2019-01-25T00:38:21.189Z,92.90
2019-01-25T00:40:50.369Z,94.60
2019-01-25T00:43:19.719Z,95.00
2019-01-25T00:45:49.410Z,93.10
2019-01-25T00:48:21.304Z,92.00
2019-01-25T00:50:57.080Z,91.40
2019-01-25T00:53:30.245Z,90.30
2019-01-25T00:56:06.226Z,89.20
2019-01-25T00:58:38.252Z,90.00
2019-01-25T01:01:08.724Z,90.30
2019-01-25T01:03:39.906Z,88.90
2019-01-25T01:06:10.220Z,89.10
2019-01-25T01:08:41.951Z,88.40
2019-01-25T01:11:11.214Z,88.10
2019-01-25T01:13:42.058Z,89.00
2019-01-25T01:16:11.558Z,89.20
2019-01-25T01:18:43.503Z,89.30
2019-01-25T01:21:13.174Z,88.50
2019-01-25T01:23:47.047Z,89.00
2019-01-25T01:26:17.973Z,89.20
2019-01-25T01:28:51.510Z,88.40
2019-01-25T01:31:23.004Z,88.50
2019-01-25T01:33:53.735Z,88.80
2019-01-25T01:36:22.922Z,89.80
2019-01-25T01:38:55.363Z,89.70
2019-01-25T01:41:26.163Z,90.00
2019-01-25T01:43:58.880Z,89.30
2019-01-25T01:46:28.511Z,89.20
2019-01-25T01:48:58.762Z,90.00
2019-01-25T01:51:32.207Z,89.80
2019-01-25T01:54:02.346Z,89.80
2019-01-25T01:56:31.577Z,89.90
2019-01-25T01:59:01.355Z,90.00
2019-01-25T02:01:34.276Z,88.90
2019-01-25T02:04:05.705Z,89.00
2019-01-25T02:06:35.711Z,88.20
2019-01-25T02:09:12.823Z,89.30
2019-01-25T02:11:39.560Z,89.90
2019-01-25T02:14:11.406Z,90.30
2019-01-25T02:16:42.202Z,90.90
2019-01-25T02:19:23.632Z,91.50
2019-01-25T02:21:54.243Z,92.00
2019-01-25T02:24:23.713Z,92.30
2019-01-25T02:26:57.810Z,92.30
2019-01-25T02:29:28.545Z,92.40
2019-01-25T02:31:57.765Z,92.30
2019-01-25T02:34:30.015Z,92.30
2019-01-25T02:37:03.009Z,92.20
2019-01-25T02:39:33.899Z,91.60
2019-01-25T02:42:04.342Z,91.60
2019-01-25T02:44:35.231Z,92.40
2019-01-25T02:47:08.191Z,92.10
2019-01-25T02:49:40.511Z,91.80
2019-01-25T02:52:16.961Z,91.30
2019-01-25T02:54:52.321Z,91.20
2019-01-25T02:57:21.543Z,90.40
2019-01-25T02:59:51.865Z,89.70
2019-01-25T03:02:21.039Z,89.80
2019-01-25T03:04:56.515Z,90.70
2019-01-25T03:07:27.282Z,90.90
2019-01-25T03:09:58.253Z,90.80
2019-01-25T03:12:28.775Z,90.50
2019-01-25T03:15:01.598Z,91.00
2019-01-25T03:17:31.363Z,91.20
2019-01-25T03:20:01.606Z,90.10
2019-01-25T03:22:31.226Z,89.90
2019-01-25T03:25:03.996Z,90.70
2019-01-25T03:27:33.964Z,90.80
2019-01-25T03:30:06.271Z,91.30
2019-01-25T03:32:37.681Z,91.40
2019-01-25T03:35:08.690Z,91.20
2019-01-25T03:37:40.543Z,89.80
2019-01-25T03:40:14.093Z,90.20
2019-01-25T03:42:43.787Z,91.50
2019-01-25T03:45:14.663Z,92.30
2019-01-25T03:47:51.791Z,92.60
2019-01-25T03:50:24.976Z,92.40
2019-01-25T03:52:54.425Z,93.10
2019-01-25T03:55:24.333Z,93.00
2019-01-25T03:57:54.728Z,93.10
2019-01-25T04:00:26.224Z,93.70
2019-01-25T04:02:56.982Z,93.50
2019-01-25T04:05:27.550Z,93.60
2019-01-25T04:07:58.248Z,94.20
2019-01-25T04:10:30.780Z,94.80
2019-01-25T04:13:01.371Z,94.50
2019-01-25T04:15:34.794Z,94.20
2019-01-25T04:18:06.282Z,94.00
2019-01-25T04:20:35.618Z,93.50
2019-01-25T04:23:06.849Z,93.40
2019-01-25T04:25:36.100Z,93.00
2019-01-25T04:28:06.922Z,92.60
2019-01-25T04:30:38.299Z,92.90
2019-01-25T04:33:08.006Z,93.00
2019-01-25T04:35:38.352Z,92.50
2019-01-25T04:38:08.844Z,92.80
2019-01-25T04:40:40.756Z,93.00
2019-01-25T04:43:11.678Z,93.50
2019-01-25T04:45:43.203Z,93.80
2019-01-25T04:48:16.122Z,94.30
2019-01-25T04:50:45.544Z,94.80
2019-01-25T04:53:15.579Z,95.40
2019-01-25T04:55:44.844Z,96.10
2019-01-25T04:58:19.272Z,96.90
2019-01-25T05:00:49.500Z,97.10
2019-01-25T05:03:23.987Z,97.40
2019-01-25T05:05:53.141Z,96.80
2019-01-25T05:08:24.650Z,96.10
2019-01-25T05:10:56.844Z,95.10
2019-01-25T05:13:26.107Z,95.00
2019-01-25T05:15:58.082Z,94.60
2019-01-25T05:18:28.842Z,94.10
2019-01-25T05:21:01.211Z,93.80
2019-01-25T05:23:33.758Z,93.60
2019-01-25T05:26:03.275Z,93.80
2019-01-25T05:28:33.064Z,94.10
2019-01-25T05:31:06.218Z,94.70
2019-01-25T05:33:37.537Z,94.40
2019-01-25T05:36:07.463Z,94.00
2019-01-25T05:38:40.478Z,94.00
2019-01-25T05:41:09.763Z,94.40
2019-01-25T05:43:44.903Z,94.50
2019-01-25T05:46:19.271Z,94.40
2019-01-25T05:48:54.112Z,94.80
2019-01-25T05:51:33.420Z,94.80
2019-01-25T05:53:56.888Z,94.30
2019-01-25T05:56:30.170Z,94.40
2019-01-25T05:58:59.988Z,94.90
2019-01-25T06:01:32.043Z,95.00
2019-01-25T06:04:02.518Z,94.90
2019-01-25T06:06:32.099Z,95.00
2019-01-25T06:09:03.943Z,95.20
2019-01-25T06:11:37.979Z,95.30
2019-01-25T06:14:08.030Z,95.30
2019-01-25T06:16:46.821Z,95.40
2019-01-25T06:19:16.930Z,95.50
2019-01-25T06:21:49.417Z,95.80
2019-01-25T06:24:19.548Z,96.00
2019-01-25T06:26:49.038Z,96.30
2019-01-25T06:29:20.617Z,96.50
2019-01-25T06:31:52.639Z,96.60
2019-01-25T06:34:26.327Z,97.00
2019-01-25T06:36:56.031Z,97.00
2019-01-25T06:39:26.407Z,97.00
2019-01-25T06:41:59.571Z,97.30
2019-01-25T06:44:38.296Z,97.50
2019-01-25T06:47:16.235Z,97.20
2019-01-25T06:49:52.819Z,96.80
2019-01-25T06:52:32.249Z,97.20
2019-01-25T06:55:08.804Z,98.00
2019-01-25T06:58:06.944Z,97.90
2019-01-25T07:00:53.462Z,97.10
2019-01-25T07:03:24.216Z,96.10
2019-01-25T07:06:06.358Z,96.10
2019-01-25T07:08:41.857Z,96.60
2019-01-25T07:11:25.611Z,97.60
2019-01-25T07:13:58.381Z,98.10
2019-01-25T07:16:33.934Z,97.90
2019-01-25T07:19:12.445Z,97.80
2019-01-25T07:21:37.823Z,97.10
2019-01-25T07:24:16.504Z,97.00
2019-01-25T07:26:50.486Z,97.10
2019-01-25T07:29:29.364Z,97.20
2019-01-25T07:32:09.123Z,97.50
2019-01-25T07:34:45.695Z,97.40
2019-01-25T07:37:23.587Z,97.10
2019-01-25T07:40:01.805Z,96.60
2019-01-25T07:42:42.236Z,96.40
2019-01-25T07:45:16.389Z,96.60
2019-01-25T07:47:51.804Z,96.80
2019-01-25T07:50:27.713Z,96.70
2019-01-25T07:52:58.034Z,96.40
2019-01-25T07:55:39.230Z,96.00
2019-01-25T07:58:17.260Z,96.10
2019-01-25T08:00:53.867Z,95.90
2019-01-25T08:03:30.272Z,95.80
2019-01-25T08:06:06.837Z,95.80
2019-01-25T08:08:40.204Z,95.50
2019-01-25T08:11:18.492Z,94.90
2019-01-25T08:13:51.330Z,95.10
2019-01-25T08:16:25.703Z,94.70
2019-01-25T08:18:56.035Z,94.70
2019-01-25T08:21:36.065Z,94.50
2019-01-25T08:24:13.955Z,94.00
2019-01-25T08:26:49.510Z,93.40
2019-01-25T08:29:18.701Z,92.60
2019-01-25T08:31:54.691Z,93.10
2019-01-25T08:34:33.528Z,93.10
2019-01-25T08:37:08.561Z,93.10
2019-01-25T08:39:43.559Z,92.90
2019-01-25T08:42:15.658Z,92.80
2019-01-25T08:44:51.236Z,92.70
2019-01-25T08:47:35.312Z,92.90
2019-01-25T08:50:14.473Z,92.10
2019-01-25T08:52:58.557Z,92.00
2019-01-25T08:55:27.847Z,92.50
2019-01-25T08:58:05.399Z,92.50
2019-01-25T09:00:44.810Z,92.00
2019-01-25T09:03:15.521Z,92.80
2019-01-25T09:05:49.482Z,92.50
2019-01-25T09:08:23.791Z,92.40
2019-01-25T09:10:59.363Z,92.30
2019-01-25T09:13:38.857Z,92.00
2019-01-25T09:16:16.042Z,91.80
2019-01-25T09:18:56.142Z,91.40
2019-01-25T09:21:32.729Z,91.40
2019-01-25T09:24:05.954Z,91.00
2019-01-25T09:26:41.564Z,92.00
2019-01-25T09:29:16.059Z,92.10
2019-01-25T09:31:48.550Z,91.70
2019-01-25T09:34:26.360Z,92.60
2019-01-25T09:37:04.786Z,92.90
2019-01-25T09:39:41.155Z,93.30
2019-01-25T09:42:17.495Z,93.50
2019-01-25T09:47:51.613Z,93.70
2019-01-25T09:50:28.840Z,93.50
2019-01-25T09:53:01.510Z,93.80
2019-01-25T09:55:40.889Z,94.10
2019-01-25T09:58:24.264Z,94.20
2019-01-25T10:01:09.666Z,93.50
2019-01-25T10:03:49.163Z,93.20
2019-01-25T10:06:25.641Z,93.00
2019-01-25T10:09:00.630Z,93.60
2019-01-25T10:11:33.983Z,93.40
2019-01-25T10:14:06.633Z,93.10
2019-01-25T10:16:46.605Z,93.10
2019-01-25T10:19:14.803Z,93.40
2019-01-25T10:21:53.934Z,93.10
2019-01-25T10:24:28.740Z,92.60
2019-01-25T10:26:59.579Z,93.40
2019-01-25T10:29:34.183Z,93.30
2019-01-25T10:32:10.508Z,93.50
2019-01-25T10:34:43.504Z,93.90
2019-01-25T10:37:17.565Z,93.20
2019-01-25T10:39:48.113Z,91.70
2019-01-25T10:42:20.819Z,92.60
2019-01-25T10:44:57.543Z,91.90
2019-01-25T10:47:31.117Z,92.40
2019-01-25T10:50:10.384Z,92.00
2019-01-25T10:52:45.202Z,92.80
2019-01-25T10:55:24.460Z,93.80
2019-01-25T10:57:59.806Z,94.50
2019-01-25T11:00:37.235Z,93.80
2019-01-25T11:03:09.704Z,93.30
2019-01-25T11:05:40.577Z,94.00
2019-01-25T11:08:10.627Z,93.10
2019-01-25T11:10:40.659Z,93.60
2019-01-25T11:13:11.136Z,93.80
2019-01-25T11:15:41.204Z,94.20
2019-01-25T11:18:11.420Z,94.10
2019-01-25T11:20:41.421Z,93.10
2019-01-25T11:23:13.157Z,93.80
2019-01-25T11:25:43.500Z,94.30
2019-01-25T11:28:14.414Z,93.20
2019-01-25T11:30:45.747Z,93.00
2019-01-25T11:33:16.321Z,93.00
2019-01-25T11:35:46.916Z,93.20
2019-01-25T11:38:17.613Z,91.80
2019-01-25T11:40:48.234Z,92.00
2019-01-25T11:43:18.969Z,91.60
2019-01-25T11:45:54.237Z,90.00
2019-01-25T11:48:22.159Z,90.40
2019-01-25T11:50:52.504Z,89.30
2019-01-25T11:53:23.298Z,89.70
2019-01-25T11:55:53.799Z,89.70
2019-01-25T11:58:24.305Z,90.00
2019-01-25T12:00:54.550Z,90.00
2019-01-25T12:03:24.760Z,90.60
2019-01-25T12:06:07.740Z,90.60
2019-01-25T12:09:46.205Z,88.60
2019-01-25T12:12:52.231Z,86.90
2019-01-25T12:15:25.451Z,87.90
2019-01-25T12:18:01.097Z,89.10
2019-01-25T12:21:02.749Z,89.30
2019-01-25T12:24:06.590Z,89.40
2019-01-25T12:26:42.207Z,90.80
2019-01-25T12:29:20.024Z,91.60
2019-01-25T12:31:45.294Z,92.50
2019-01-25T12:34:17.112Z,92.50
2019-01-25T12:36:48.456Z,92.50
2019-01-25T12:39:22.795Z,92.30
2019-01-25T12:41:57.243Z,91.50
2019-01-25T12:44:37.384Z,92.00
2019-01-25T12:47:10.604Z,92.10
2019-01-25T12:49:46.827Z,92.40
2019-01-25T12:52:31.359Z,91.30
2019-01-25T12:55:01.124Z,90.40
2019-01-25T12:57:53.644Z,88.40
2019-01-25T13:00:26.690Z,86.60
2019-01-25T13:02:56.578Z,85.80
2019-01-25T13:05:31.339Z,85.60
2019-01-25T13:08:05.817Z,87.00
2019-01-25T13:10:43.519Z,88.00
2019-01-25T13:13:15.339Z,89.00
2019-01-25T13:15:44.650Z,90.40
2019-01-25T13:18:13.878Z,91.60
2019-01-25T13:20:48.634Z,92.40
2019-01-25T13:23:19.125Z,93.30
2019-01-25T13:25:51.766Z,94.00
2019-01-25T13:28:24.995Z,94.20
2019-01-25T13:31:03.572Z,94.80
2019-01-25T13:33:33.557Z,94.30
2019-01-25T13:36:03.642Z,93.40
2019-01-25T13:38:34.828Z,93.10
2019-01-25T13:41:11.163Z,93.00
2019-01-25T13:43:42.891Z,93.50
2019-01-25T13:46:16.874Z,94.10
2019-01-25T13:48:48.370Z,94.10
2019-01-25T13:51:20.759Z,93.60
2019-01-25T13:53:54.479Z,93.20
2019-01-25T13:56:29.145Z,93.70
2019-01-25T13:59:00.929Z,94.50
2019-01-25T14:01:34.670Z,94.80
2019-01-25T14:04:05.020Z,95.50
2019-01-25T14:06:36.338Z,96.00
2019-01-25T14:09:09.782Z,95.90
2019-01-25T14:11:41.366Z,95.70
2019-01-25T14:14:21.095Z,95.70
2019-01-25T14:16:52.240Z,95.20
2019-01-25T14:19:24.483Z,95.50
2019-01-25T14:21:56.362Z,95.80
2019-01-25T14:24:27.553Z,95.70
2019-01-25T14:36:45.158Z,96.20
2019-01-25T14:39:45.036Z,95.80
2019-01-25T16:26:22.959Z,99.80
2019-01-25T16:28:55.427Z,99.80
2019-01-25T16:31:29.110Z,99.80
2019-01-25T16:34:00.356Z,99.80
2019-01-25T16:36:32.826Z,99.80
2019-01-25T16:39:04.571Z,99.80
2019-01-25T16:41:34.323Z,99.80
2019-01-25T16:44:04.335Z,99.80
2019-01-25T16:46:33.634Z,99.80
2019-01-25T16:49:04.840Z,99.80
2019-01-25T16:51:36.900Z,99.80
2019-01-25T16:54:10.740Z,99.80
2019-01-25T16:56:42.040Z,99.80
2019-01-25T16:59:15.759Z,99.80
2019-01-25T17:01:49.036Z,99.80
2019-01-25T17:04:19.243Z,99.80
2019-01-25T17:06:59.732Z,99.80
2019-01-25T17:09:29.060Z,99.80
2019-01-25T17:12:04.367Z,99.80
2019-01-25T17:14:39.475Z,99.80
2019-01-25T17:17:11.567Z,99.80
2019-01-25T17:19:41.547Z,99.80
2019-01-25T17:22:19.442Z,99.80
2019-01-25T17:24:49.538Z,99.80
2019-01-25T17:27:30.382Z,99.80
2019-01-25T17:30:00.907Z,99.80
2019-01-25T17:32:32.610Z,99.70
2019-01-25T17:35:06.785Z,99.40
2019-01-25T17:37:40.603Z,99.10
2019-01-25T17:40:21.200Z,98.50
2019-01-25T17:42:53.430Z,97.70
2019-01-25T17:45:23.175Z,96.80
2019-01-25T17:47:54.271Z,96.20
2019-01-25T17:50:25.411Z,96.60
2019-01-25T17:52:58.028Z,96.00
2019-01-25T17:55:28.307Z,95.80
2019-01-25T17:58:07.661Z,95.60
2019-01-25T18:00:51.407Z,94.90
2019-01-25T18:03:21.376Z,94.90
2019-01-25T18:05:50.959Z,94.70
2019-01-25T18:08:21.452Z,95.00
2019-01-25T18:10:57.507Z,95.00
2019-01-25T18:13:28.719Z,95.30
2019-01-25T18:15:58.530Z,95.40
2019-01-25T18:18:29.028Z,95.20
2019-01-25T18:20:58.526Z,95.40
2019-01-25T18:23:28.425Z,95.60
2019-01-25T18:26:05.262Z,95.50
2019-01-25T18:28:38.423Z,95.90
2019-01-25T18:31:16.347Z,95.70
2019-01-25T18:33:46.057Z,95.70
2019-01-25T18:36:16.504Z,95.60
2019-01-25T18:38:46.327Z,95.60
2019-01-25T18:41:15.588Z,95.60
2019-01-25T18:43:44.820Z,95.20
2019-01-25T18:46:14.245Z,95.40
2019-01-25T18:48:43.634Z,95.80
2019-01-25T18:51:12.835Z,95.70
2019-01-25T18:53:42.093Z,96.20
2019-01-25T18:56:16.253Z,96.80
2019-01-25T18:58:57.696Z,97.50
2019-01-25T19:01:27.859Z,97.90
2019-01-25T19:03:57.185Z,98.00
2019-01-25T19:06:27.555Z,98.20
2019-01-25T19:08:56.747Z,97.90
2019-01-25T19:11:26.062Z,97.60
2019-01-25T19:13:55.558Z,97.30
2019-01-25T19:16:24.919Z,97.40
2019-01-25T19:18:54.099Z,97.60
2019-01-25T19:21:38.580Z,97.60
2019-01-25T19:24:07.743Z,97.70
2019-01-25T19:26:36.967Z,97.60
2019-01-25T19:29:06.344Z,97.70
2019-01-25T19:31:35.700Z,97.90
2019-01-25T19:34:05.011Z,97.70
2019-01-25T19:36:34.816Z,98.20
2019-01-25T19:39:07.280Z,98.60
2019-01-25T19:41:45.668Z,98.60
2019-01-25T19:44:19.795Z,99.20
2019-01-25T19:46:51.451Z,99.80
2019-01-25T19:49:20.839Z,99.80
2019-01-25T19:51:50.482Z,99.80
2019-01-25T19:54:20.104Z,99.80
2019-01-25T19:56:49.419Z,99.80
2019-01-25T19:59:18.828Z,99.80
2019-01-25T20:01:48.543Z,99.80
2019-01-25T20:04:17.834Z,99.80
2019-01-25T20:06:47.072Z,99.80
2019-01-25T20:09:16.466Z,99.80
2019-01-25T20:11:46.194Z,99.80
2019-01-25T20:14:15.753Z,99.80
2019-01-25T20:16:45.089Z,99.80
2019-01-25T20:19:14.803Z,99.80
2019-01-25T20:21:44.434Z,99.80
2019-01-25T20:24:13.731Z,99.80
2019-01-25T20:26:43.100Z,99.80
2019-01-25T20:29:12.610Z,99.80
2019-01-25T20:31:41.917Z,99.80
2019-01-25T20:34:12.279Z,99.80
2019-01-25T20:36:41.535Z,99.80
2019-01-25T20:39:11.699Z,99.80
2019-01-25T20:41:40.864Z,99.80
2019-01-25T20:44:10.131Z,99.80
2019-01-25T20:46:40.000Z,99.80
2019-01-25T20:49:09.250Z,99.80
2019-01-25T20:51:38.832Z,99.80
2019-01-25T20:54:08.047Z,99.80
2019-01-25T20:56:37.517Z,99.80
2019-01-25T20:59:08.275Z,99.80
2019-01-25T21:01:37.811Z,99.80
2019-01-25T21:04:07.188Z,99.80
2019-01-25T21:06:39.531Z,99.80
2019-01-25T21:09:10.888Z,99.80
2019-01-25T21:11:40.224Z,99.80
2019-01-25T21:14:09.394Z,99.80
2019-01-25T21:16:39.233Z,99.80
2019-01-25T21:19:08.968Z,99.80
2019-01-25T21:21:43.598Z,99.80
2019-01-25T21:24:10.642Z,99.80
2019-01-25T21:26:39.897Z,99.80
2019-01-25T21:29:09.228Z,99.80
2019-01-25T21:31:38.478Z,99.80
2019-01-25T21:34:07.774Z,99.80
2019-01-25T21:36:37.194Z,99.80
2019-01-25T21:39:09.297Z,99.80
2019-01-25T21:41:40.349Z,99.80
2019-01-25T21:44:10.087Z,99.80
2019-01-25T21:46:40.597Z,99.80
2019-01-25T21:49:10.490Z,99.80
2019-01-25T21:51:39.984Z,99.80
2019-01-25T21:54:09.197Z,99.80
2019-01-25T21:56:40.432Z,99.80
2019-01-25T21:59:09.949Z,99.80
2019-01-25T22:01:40.979Z,99.80
2019-01-25T22:04:10.694Z,99.80
2019-01-25T22:06:43.100Z,99.80
2019-01-25T22:09:12.773Z,99.80
2019-01-25T22:11:45.967Z,99.80
2019-01-25T22:14:15.443Z,99.80
2019-01-25T22:16:45.694Z,99.80
2019-01-25T22:19:15.275Z,99.80
2019-01-25T22:21:46.426Z,99.80
2019-01-25T22:24:15.831Z,99.80
2019-01-25T22:26:51.392Z,99.80
2019-01-25T22:29:32.548Z,99.80
2019-01-25T22:32:12.909Z,99.80
2019-01-25T22:34:42.119Z,99.80
2019-01-25T22:37:16.318Z,99.80
2019-01-25T22:39:55.166Z,99.80
2019-01-25T22:42:32.182Z,99.80
2019-01-25T22:45:02.523Z,99.80
2019-01-25T22:47:31.892Z,99.80
2019-01-25T22:50:01.182Z,99.80
2019-01-25T22:52:30.880Z,99.80
2019-01-25T22:55:02.219Z,99.80
2019-01-25T22:57:31.910Z,99.80
2019-01-25T23:00:54.601Z,99.80
2019-01-25T23:03:31.057Z,99.80
2019-01-25T23:06:42.838Z,99.80
2019-01-25T23:09:32.038Z,99.80
2019-01-25T23:12:05.556Z,99.80
2019-01-25T23:14:34.805Z,99.80
2019-01-25T23:17:05.344Z,99.80
2019-01-25T23:19:35.876Z,99.80
2019-01-25T23:22:05.270Z,99.80
2019-01-25T23:24:35.975Z,99.80
2019-01-25T23:27:06.336Z,99.80
2019-01-25T23:29:35.919Z,99.80
2019-01-25T23:32:06.440Z,99.80
2019-01-25T23:34:40.663Z,99.80
2019-01-25T23:37:19.692Z,99.80
2019-01-25T23:39:53.296Z,99.80
2019-01-25T23:42:22.631Z,99.80
2019-01-25T23:44:51.951Z,99.80
2019-01-25T23:47:21.487Z,99.80
2019-01-25T23:49:58.482Z,99.80
2019-01-25T23:52:39.930Z,99.80
2019-01-25T23:55:14.365Z,99.80
2019-01-25T23:57:43.785Z,99.80
